createdAt,value
2023-12-08T00:00:39.855Z,0.00
2023-12-08T00:01:37.360Z,0.00
2023-12-08T00:02:29.405Z,0.00
2023-12-08T00:03:29.351Z,0.00
2023-12-08T00:04:29.389Z,0.00
2023-12-08T00:05:29.316Z,0.00
2023-12-08T00:06:29.301Z,0.00
2023-12-08T00:07:29.298Z,0.00
2023-12-08T00:08:29.294Z,0.00
2023-12-08T00:09:29.195Z,0.00
2023-12-08T00:10:29.267Z,0.00
2023-12-08T00:11:29.203Z,0.00
2023-12-08T00:12:29.205Z,0.00
2023-12-08T00:13:29.284Z,0.00
2023-12-08T00:14:29.224Z,0.00
2023-12-08T00:15:38.176Z,0.00
2023-12-08T00:16:29.278Z,0.00
2023-12-08T00:17:29.279Z,0.00
2023-12-08T00:18:29.442Z,0.00
2023-12-08T00:19:29.288Z,0.00
2023-12-08T00:20:29.219Z,0.00
2023-12-08T00:21:29.212Z,0.00
2023-12-08T00:22:29.098Z,0.00
2023-12-08T00:23:29.129Z,0.00
2023-12-08T00:24:29.171Z,0.00
2023-12-08T00:30:22.622Z,0.00
2023-12-08T00:31:23.600Z,0.00
2023-12-08T00:32:23.625Z,0.00
2023-12-08T00:34:45.765Z,0.00
2023-12-08T00:35:46.786Z,0.00
2023-12-08T00:36:46.675Z,0.00
2023-12-08T00:37:46.718Z,0.00
2023-12-08T00:38:46.756Z,0.00
2023-12-08T00:39:46.722Z,0.00
2023-12-08T00:40:46.626Z,0.00
2023-12-08T00:41:46.670Z,0.00
2023-12-08T00:42:46.608Z,0.00
2023-12-08T00:43:46.718Z,0.00
2023-12-08T00:44:46.665Z,0.00
2023-12-08T00:45:56.876Z,0.00
2023-12-08T00:46:46.721Z,0.00
2023-12-08T00:47:46.824Z,0.00
2023-12-08T00:51:35.105Z,0.00
2023-12-08T00:52:45.861Z,0.00
2023-12-08T00:53:35.953Z,0.00
2023-12-08T00:54:35.686Z,0.00
2023-12-08T00:55:35.578Z,0.00
2023-12-08T00:56:43.488Z,0.00
2023-12-08T00:57:35.819Z,0.00
2023-12-08T00:58:35.721Z,0.00
2023-12-08T00:59:35.703Z,0.00
2023-12-08T01:00:42.480Z,0.00
2023-12-08T01:01:35.810Z,0.00
2023-12-08T01:02:35.798Z,0.00
2023-12-08T01:03:45.470Z,0.00
2023-12-08T01:05:53.973Z,0.00
2023-12-08T01:07:02.491Z,0.00
2023-12-08T01:07:54.837Z,0.00
2023-12-08T01:08:54.707Z,0.00
2023-12-08T01:09:54.609Z,0.00
2023-12-08T01:10:54.548Z,0.00
2023-12-08T01:11:54.558Z,0.00
2023-12-08T01:12:54.566Z,0.00
2023-12-08T01:13:54.544Z,0.00
2023-12-08T01:14:54.669Z,0.00
2023-12-08T01:15:54.573Z,0.00
2023-12-08T01:16:54.596Z,0.00
2023-12-08T01:17:54.613Z,0.00
2023-12-08T01:18:54.811Z,0.00
2023-12-08T01:19:54.496Z,0.00
2023-12-08T01:22:24.852Z,0.00
2023-12-08T01:23:25.908Z,0.00
2023-12-08T01:24:25.771Z,0.00
2023-12-08T01:25:25.747Z,0.00
2023-12-08T01:26:36.024Z,0.00
2023-12-08T01:27:33.686Z,0.00
2023-12-08T01:28:34.182Z,0.00
2023-12-08T01:29:26.016Z,0.00
2023-12-08T01:30:25.895Z,0.00
2023-12-08T01:31:33.778Z,0.00
2023-12-08T01:32:25.816Z,0.00
2023-12-08T01:33:34.978Z,0.00
2023-12-08T01:34:25.865Z,0.00
2023-12-08T01:35:25.678Z,0.00
2023-12-08T01:36:41.595Z,0.00
2023-12-08T01:37:25.891Z,0.00
2023-12-08T01:38:25.670Z,0.00
2023-12-08T01:39:25.637Z,0.00
2023-12-08T01:40:25.620Z,0.00
2023-12-08T01:41:25.601Z,0.00
2023-12-08T01:42:25.591Z,0.00
2023-12-08T01:43:25.608Z,0.00
2023-12-08T01:44:25.591Z,0.00
2023-12-08T01:45:25.561Z,0.00
2023-12-08T01:46:25.542Z,0.00
2023-12-08T01:47:25.948Z,0.00
2023-12-08T01:48:25.641Z,0.00
2023-12-08T01:49:25.614Z,0.00
2023-12-08T01:50:25.517Z,0.00
2023-12-08T01:51:25.626Z,0.00
2023-12-08T01:52:26.016Z,0.00
2023-12-08T01:53:25.511Z,0.00
2023-12-08T01:54:25.464Z,0.00
2023-12-08T01:55:25.462Z,0.00
2023-12-08T01:56:25.530Z,0.00
2023-12-08T01:57:25.706Z,0.00
2023-12-08T01:58:25.483Z,0.00
2023-12-08T01:59:25.399Z,0.00
2023-12-08T02:00:25.448Z,0.00
2023-12-08T02:01:25.388Z,0.00
2023-12-08T02:02:25.502Z,0.00
2023-12-08T02:03:25.479Z,0.00
2023-12-08T02:04:25.405Z,0.00
2023-12-08T02:05:25.362Z,0.00
2023-12-08T02:06:25.352Z,0.00
2023-12-08T02:07:25.689Z,0.00
2023-12-08T02:08:34.540Z,0.00
2023-12-08T02:09:25.357Z,0.00
2023-12-08T02:10:35.795Z,0.00
2023-12-08T02:11:25.437Z,0.00
2023-12-08T02:12:25.291Z,0.00
2023-12-08T02:13:25.290Z,0.00
2023-12-08T02:14:25.307Z,0.00
2023-12-08T02:15:25.296Z,0.00
2023-12-08T02:17:46.220Z,0.00
2023-12-08T02:18:47.077Z,0.00
2023-12-08T02:19:46.768Z,0.00
2023-12-08T02:20:46.776Z,0.00
2023-12-08T02:21:46.618Z,0.00
2023-12-08T02:22:46.627Z,0.00
2023-12-08T02:23:46.639Z,0.00
2023-12-08T02:24:46.626Z,0.00
2023-12-08T02:25:46.579Z,0.00
2023-12-08T02:26:46.622Z,0.00
2023-12-08T02:27:46.603Z,0.00
2023-12-08T02:28:56.515Z,0.00
2023-12-08T02:29:54.195Z,0.00
2023-12-08T02:30:46.723Z,0.00
2023-12-08T02:31:46.701Z,0.00
2023-12-08T02:32:46.610Z,0.00
2023-12-08T02:33:54.586Z,0.00
2023-12-08T02:34:46.913Z,0.00
2023-12-08T02:35:53.234Z,0.00
2023-12-08T02:38:21.473Z,0.00
2023-12-08T02:39:22.583Z,0.00
2023-12-08T02:40:22.430Z,0.00
2023-12-08T02:41:22.344Z,0.00
2023-12-08T02:42:22.339Z,0.00
2023-12-08T02:43:22.341Z,0.00
2023-12-08T02:44:22.297Z,0.00
2023-12-08T02:45:22.369Z,0.00
2023-12-08T02:46:22.307Z,0.00
2023-12-08T02:47:22.489Z,0.00
2023-12-08T02:48:22.494Z,0.00
2023-12-08T02:49:22.421Z,0.00
2023-12-08T02:50:22.243Z,0.00
2023-12-08T02:51:22.268Z,0.00
2023-12-08T02:52:22.231Z,0.00
2023-12-08T02:53:22.254Z,0.00
2023-12-08T02:54:22.195Z,0.00
2023-12-08T02:55:22.226Z,0.00
2023-12-08T02:56:22.175Z,0.00
2023-12-08T02:57:22.174Z,0.00
2023-12-08T02:58:22.167Z,0.00
2023-12-08T02:59:22.198Z,0.00
2023-12-08T03:00:22.201Z,0.00
2023-12-08T03:01:22.180Z,0.00
2023-12-08T03:02:22.140Z,0.00
2023-12-08T03:03:22.230Z,0.00
2023-12-08T03:04:22.189Z,0.00
2023-12-08T03:05:22.148Z,0.00
2023-12-08T03:06:22.088Z,0.00
2023-12-08T03:07:22.079Z,0.00
2023-12-08T03:08:22.085Z,0.00
2023-12-08T03:09:22.063Z,0.00
2023-12-08T03:10:22.046Z,0.00
2023-12-08T03:11:30.774Z,0.00
2023-12-08T03:12:22.265Z,0.00
2023-12-08T03:13:22.092Z,0.00
2023-12-08T03:14:22.065Z,0.00
2023-12-08T03:15:22.010Z,0.00
2023-12-08T03:16:21.964Z,0.00
2023-12-08T03:17:22.027Z,0.00
2023-12-08T03:18:22.185Z,0.00
2023-12-08T03:19:22.018Z,0.00
2023-12-08T03:20:22.039Z,0.00
2023-12-08T03:21:21.935Z,0.00
2023-12-08T03:22:21.905Z,0.00
2023-12-08T03:23:21.898Z,0.00
2023-12-08T03:24:21.886Z,0.00
2023-12-08T03:25:21.899Z,0.00
2023-12-08T03:26:21.899Z,0.00
2023-12-08T03:27:30.802Z,0.00
2023-12-08T03:28:22.020Z,0.00
2023-12-08T03:30:47.578Z,0.00
2023-12-08T03:31:48.705Z,0.00
2023-12-08T03:32:48.690Z,0.00
2023-12-08T03:33:48.620Z,0.00
2023-12-08T03:34:48.621Z,0.00
2023-12-08T03:35:48.536Z,0.00
2023-12-08T03:38:26.193Z,0.00
2023-12-08T03:39:36.296Z,0.00
2023-12-08T03:40:27.270Z,0.00
2023-12-08T03:41:27.506Z,0.00
2023-12-08T03:42:39.503Z,0.00
2023-12-08T03:45:22.147Z,0.00
2023-12-08T03:46:22.450Z,0.00
2023-12-08T03:49:13.927Z,0.00
2023-12-08T03:50:17.517Z,0.00
2023-12-08T03:51:25.055Z,0.00
2023-12-08T03:52:15.223Z,0.00
2023-12-08T03:53:21.730Z,0.00
2023-12-08T03:54:23.487Z,0.00
2023-12-08T03:56:55.849Z,0.00
2023-12-08T03:57:56.555Z,0.00
2023-12-08T03:58:56.945Z,0.00
2023-12-08T04:00:05.652Z,0.00
2023-12-08T04:05:11.913Z,0.00
2023-12-08T04:08:20.366Z,0.00
2023-12-08T04:11:37.383Z,0.00
2023-12-08T04:12:46.900Z,0.00
2023-12-08T04:13:38.444Z,0.00
2023-12-08T04:14:48.084Z,0.00
2023-12-08T04:17:18.141Z,0.00
2023-12-08T04:19:58.769Z,0.00
2023-12-08T04:20:59.832Z,0.00
2023-12-08T04:24:41.782Z,0.00
2023-12-08T04:25:42.790Z,0.00
2023-12-08T04:29:51.242Z,0.00
2023-12-08T04:30:52.142Z,0.00
2023-12-08T04:31:52.021Z,0.00
2023-12-08T04:32:51.888Z,0.00
2023-12-08T04:33:53.294Z,0.00
2023-12-08T04:34:52.061Z,0.00
2023-12-08T04:35:51.908Z,0.00
2023-12-08T04:36:51.717Z,0.00
2023-12-08T04:37:51.932Z,0.00
2023-12-08T04:38:52.256Z,0.00
2023-12-08T04:41:05.975Z,0.00
2023-12-08T04:42:07.028Z,0.00
2023-12-08T04:43:07.131Z,0.00
2023-12-08T04:44:06.608Z,0.00
2023-12-08T04:45:06.831Z,0.00
2023-12-08T04:46:06.761Z,0.00
2023-12-08T04:47:06.772Z,0.00
2023-12-08T04:49:45.070Z,0.00
2023-12-08T04:50:45.796Z,0.00
2023-12-08T04:53:13.965Z,0.00
2023-12-08T04:54:14.780Z,0.00
2023-12-08T04:57:34.597Z,0.00
2023-12-08T04:58:43.340Z,0.00
2023-12-08T04:59:35.690Z,0.00
2023-12-08T05:00:35.250Z,0.00
2023-12-08T05:02:45.959Z,0.00
2023-12-08T05:03:46.862Z,0.00
2023-12-08T05:04:46.819Z,0.00
2023-12-08T05:05:46.844Z,0.00
2023-12-08T05:06:46.849Z,0.00
2023-12-08T05:07:46.781Z,0.00
2023-12-08T05:08:46.772Z,0.00
2023-12-08T05:09:46.763Z,0.00
2023-12-08T05:10:46.725Z,0.00
2023-12-08T05:11:46.777Z,0.00
2023-12-08T05:12:46.691Z,0.00
2023-12-08T05:13:46.739Z,0.00
2023-12-08T05:14:46.704Z,0.00
2023-12-08T05:15:46.691Z,0.00
2023-12-08T05:16:46.643Z,0.00
2023-12-08T05:17:46.753Z,0.00
2023-12-08T05:18:46.782Z,0.00
2023-12-08T05:19:46.676Z,0.00
2023-12-08T05:20:46.659Z,0.00
2023-12-08T05:21:46.603Z,0.00
2023-12-08T05:22:46.596Z,0.00
2023-12-08T05:23:46.618Z,0.00
2023-12-08T05:24:46.571Z,0.00
2023-12-08T05:25:46.567Z,0.00
2023-12-08T05:26:46.690Z,0.00
2023-12-08T05:27:46.623Z,0.00
2023-12-08T05:28:46.526Z,0.00
2023-12-08T05:29:46.555Z,0.00
2023-12-08T05:30:46.513Z,0.00
2023-12-08T05:31:46.523Z,0.00
2023-12-08T05:32:46.623Z,0.00
2023-12-08T05:33:46.567Z,0.00
2023-12-08T05:34:46.536Z,0.00
2023-12-08T05:35:46.515Z,0.00
2023-12-08T05:36:46.465Z,0.00
2023-12-08T05:37:46.486Z,0.00
2023-12-08T05:38:46.555Z,0.00
2023-12-08T05:39:46.448Z,0.00
2023-12-08T05:40:46.432Z,0.00
2023-12-08T05:41:46.420Z,0.00
2023-12-08T05:42:46.380Z,0.00
2023-12-08T05:43:46.399Z,0.00
2023-12-08T05:44:46.441Z,0.00
2023-12-08T05:45:46.348Z,0.00
2023-12-08T05:46:46.339Z,0.00
2023-12-08T05:47:46.487Z,0.00
2023-12-08T05:48:46.474Z,0.00
2023-12-08T05:49:46.350Z,0.00
2023-12-08T05:50:47.072Z,0.00
2023-12-08T05:51:46.277Z,0.00
2023-12-08T05:52:46.292Z,0.00
2023-12-08T05:53:46.316Z,0.00
2023-12-08T05:54:46.279Z,0.00
2023-12-08T05:55:46.243Z,0.00
2023-12-08T05:56:46.292Z,0.00
2023-12-08T05:57:46.296Z,0.00
2023-12-08T05:58:46.275Z,0.00
2023-12-08T05:59:46.227Z,0.00
2023-12-08T06:00:46.248Z,0.00
2023-12-08T06:01:46.175Z,0.00
2023-12-08T06:02:46.235Z,0.00
2023-12-08T06:03:46.168Z,0.00
2023-12-08T06:04:46.159Z,0.00
2023-12-08T06:05:46.241Z,0.00
2023-12-08T06:06:46.308Z,0.00
2023-12-08T06:07:46.235Z,0.00
2023-12-08T06:08:46.154Z,0.00
2023-12-08T06:09:46.111Z,0.00
2023-12-08T06:10:46.088Z,0.00
2023-12-08T06:11:46.117Z,0.00
2023-12-08T06:12:46.073Z,0.00
2023-12-08T06:13:46.066Z,0.00
2023-12-08T06:14:46.057Z,0.00
2023-12-08T06:15:46.080Z,0.00
2023-12-08T06:16:46.069Z,0.00
2023-12-08T06:17:46.091Z,0.00
2023-12-08T06:18:46.117Z,0.00
2023-12-08T06:19:46.870Z,0.00
2023-12-08T06:20:46.011Z,0.00
2023-12-08T06:21:45.998Z,0.00
2023-12-08T06:22:45.977Z,0.00
2023-12-08T06:23:45.970Z,0.00
2023-12-08T06:24:46.254Z,0.00
2023-12-08T06:25:45.945Z,0.00
2023-12-08T06:26:45.976Z,0.00
2023-12-08T06:27:45.927Z,0.00
2023-12-08T06:28:45.900Z,0.00
2023-12-08T06:29:45.940Z,0.00
2023-12-08T06:30:45.912Z,0.00
2023-12-08T06:31:45.930Z,0.00
2023-12-08T06:32:45.958Z,0.00
2023-12-08T06:33:48.331Z,0.00
2023-12-08T06:34:46.041Z,0.00
2023-12-08T06:35:45.879Z,0.00
2023-12-08T06:36:45.902Z,0.00
2023-12-08T06:37:45.814Z,0.00
2023-12-08T06:38:45.841Z,0.00
2023-12-08T06:39:45.887Z,0.00
2023-12-08T06:40:45.775Z,0.00
2023-12-08T06:41:45.961Z,0.00
2023-12-08T06:42:45.790Z,0.00
2023-12-08T06:43:45.745Z,0.00
2023-12-08T06:44:45.817Z,0.00
2023-12-08T06:45:45.776Z,0.00
2023-12-08T06:46:45.749Z,0.00
2023-12-08T06:47:45.904Z,0.00
2023-12-08T06:48:45.897Z,0.00
2023-12-08T06:49:46.010Z,0.00
2023-12-08T06:50:45.749Z,0.00
2023-12-08T06:51:45.680Z,0.00
2023-12-08T06:52:45.680Z,0.00
2023-12-08T06:53:45.768Z,0.00
2023-12-08T06:54:45.625Z,0.00
2023-12-08T06:55:45.729Z,0.00
2023-12-08T06:56:45.700Z,0.00
2023-12-08T06:57:45.596Z,0.00
2023-12-08T06:58:45.603Z,0.00
2023-12-08T06:59:45.618Z,0.00
2023-12-08T07:00:45.583Z,0.00
2023-12-08T07:01:46.214Z,0.00
2023-12-08T07:02:45.559Z,0.00
2023-12-08T07:03:45.689Z,0.00
2023-12-08T07:04:45.607Z,0.00
2023-12-08T07:05:46.268Z,1.00
2023-12-08T07:06:45.450Z,1.00
2023-12-08T07:07:45.438Z,1.00
2023-12-08T07:08:45.458Z,1.00
2023-12-08T07:09:45.449Z,2.00
2023-12-08T07:10:45.397Z,2.00
2023-12-08T07:11:45.920Z,2.00
2023-12-08T07:12:45.888Z,2.00
2023-12-08T07:13:45.370Z,2.00
2023-12-08T07:14:45.486Z,3.00
2023-12-08T07:15:45.356Z,3.00
2023-12-08T07:16:45.363Z,3.00
2023-12-08T07:17:45.621Z,3.00
2023-12-08T07:18:45.472Z,5.00
2023-12-08T07:19:45.620Z,6.00
2023-12-08T07:20:45.333Z,5.00
2023-12-08T07:21:45.322Z,4.00
2023-12-08T07:22:45.295Z,8.00
2023-12-08T07:23:45.313Z,7.00
2023-12-08T07:24:45.285Z,8.00
2023-12-08T07:25:45.241Z,7.00
2023-12-08T07:26:45.281Z,7.00
2023-12-08T07:27:45.227Z,8.00
2023-12-08T07:28:45.211Z,8.00
2023-12-08T07:29:45.270Z,8.00
2023-12-08T07:30:45.230Z,8.00
2023-12-08T07:31:45.207Z,5.00
2023-12-08T07:32:45.255Z,6.00
2023-12-08T07:33:45.382Z,6.00
2023-12-08T07:34:45.233Z,10.00
2023-12-08T07:35:45.188Z,9.00
2023-12-08T07:36:45.146Z,5.00
2023-12-08T07:37:45.115Z,12.00
2023-12-08T07:38:45.225Z,13.00
2023-12-08T07:39:45.114Z,18.00
2023-12-08T07:40:45.121Z,19.00
2023-12-08T07:41:45.095Z,18.00
2023-12-08T07:42:45.089Z,20.00
2023-12-08T07:43:45.093Z,17.00
2023-12-08T07:44:45.112Z,17.00
2023-12-08T07:45:45.081Z,23.00
2023-12-08T07:46:45.029Z,24.00
2023-12-08T07:47:47.658Z,26.00
2023-12-08T07:48:45.121Z,31.00
2023-12-08T07:49:45.071Z,30.00
2023-12-08T07:50:45.031Z,34.00
2023-12-08T07:51:44.961Z,32.00
2023-12-08T07:52:44.968Z,30.00
2023-12-08T07:53:45.069Z,34.00
2023-12-08T07:54:44.971Z,34.00
2023-12-08T07:55:44.967Z,35.00
2023-12-08T07:56:44.969Z,33.00
2023-12-08T07:57:44.920Z,33.00
2023-12-08T07:58:44.906Z,38.00
2023-12-08T07:59:44.918Z,43.00
2023-12-08T08:00:44.956Z,47.00
2023-12-08T08:01:44.884Z,46.00
2023-12-08T08:02:44.920Z,47.00
2023-12-08T08:03:44.861Z,57.00
2023-12-08T08:04:44.856Z,62.00
2023-12-08T08:05:44.929Z,62.00
2023-12-08T08:06:44.918Z,61.00
2023-12-08T08:07:44.864Z,57.00
2023-12-08T08:08:44.830Z,58.00
2023-12-08T08:09:44.794Z,65.00
2023-12-08T08:10:44.780Z,71.00
2023-12-08T08:11:44.776Z,75.00
2023-12-08T08:12:44.908Z,76.00
2023-12-08T08:13:44.798Z,81.00
2023-12-08T08:14:44.788Z,91.00
2023-12-08T08:15:44.743Z,92.00
2023-12-08T08:16:44.781Z,101.00
2023-12-08T08:17:44.802Z,107.00
2023-12-08T08:18:44.873Z,108.00
2023-12-08T08:19:44.720Z,107.00
2023-12-08T08:20:44.695Z,105.00
2023-12-08T08:21:44.691Z,103.00
2023-12-08T08:22:44.701Z,98.00
2023-12-08T08:23:44.687Z,100.00
2023-12-08T08:24:44.642Z,100.00
2023-12-08T08:25:44.656Z,100.00
2023-12-08T08:26:44.659Z,108.00
2023-12-08T08:27:44.600Z,109.00
2023-12-08T08:28:44.645Z,109.00
2023-12-08T08:29:44.612Z,106.00
2023-12-08T08:30:44.625Z,100.00
2023-12-08T08:31:44.606Z,97.00
2023-12-08T08:32:44.602Z,100.00
2023-12-08T08:33:46.998Z,113.00
2023-12-08T08:34:44.563Z,121.00
2023-12-08T08:35:44.558Z,131.00
2023-12-08T08:36:44.537Z,127.00
2023-12-08T08:37:44.521Z,121.00
2023-12-08T08:38:44.551Z,121.00
2023-12-08T08:39:44.517Z,125.00
2023-12-08T08:40:44.625Z,136.00
2023-12-08T08:41:44.491Z,140.00
2023-12-08T08:42:44.485Z,133.00
2023-12-08T08:43:44.431Z,129.00
2023-12-08T08:44:44.503Z,131.00
2023-12-08T08:45:44.419Z,124.00
2023-12-08T08:46:44.405Z,120.00
2023-12-08T08:47:44.599Z,127.00
2023-12-08T08:48:44.471Z,136.00
2023-12-08T08:49:44.521Z,142.00
2023-12-08T08:50:49.738Z,140.00
2023-12-08T08:51:44.380Z,127.00
2023-12-08T08:52:44.408Z,142.00
2023-12-08T08:53:44.395Z,156.00
2023-12-08T08:54:44.378Z,158.00
2023-12-08T08:55:44.355Z,147.00
2023-12-08T08:56:44.358Z,143.00
2023-12-08T08:57:44.318Z,138.00
2023-12-08T08:58:44.305Z,145.00
2023-12-08T08:59:44.310Z,152.00
2023-12-08T09:00:44.300Z,157.00
2023-12-08T09:01:44.311Z,159.00
2023-12-08T09:02:45.294Z,155.00
2023-12-08T09:03:44.242Z,149.00
2023-12-08T09:04:44.364Z,146.00
2023-12-08T09:05:44.283Z,130.00
2023-12-08T09:06:44.277Z,136.00
2023-12-08T09:07:44.204Z,136.00
2023-12-08T09:08:44.251Z,141.00
2023-12-08T09:09:45.068Z,154.00
2023-12-08T09:10:44.201Z,151.00
2023-12-08T09:11:44.200Z,141.00
2023-12-08T09:12:44.160Z,155.00
2023-12-08T09:13:44.156Z,169.00
2023-12-08T09:14:44.174Z,173.00
2023-12-08T09:15:44.144Z,182.00
2023-12-08T09:16:44.108Z,184.00
2023-12-08T09:17:44.254Z,175.00
2023-12-08T09:18:44.248Z,174.00
2023-12-08T09:19:44.143Z,163.00
2023-12-08T09:20:44.077Z,166.00
2023-12-08T09:21:52.172Z,184.00
2023-12-08T09:22:44.038Z,190.00
2023-12-08T09:23:44.079Z,200.00
2023-12-08T09:24:44.067Z,215.00
2023-12-08T09:25:44.002Z,216.00
2023-12-08T09:26:44.028Z,231.00
2023-12-08T09:27:44.008Z,249.00
2023-12-08T09:28:43.984Z,243.00
2023-12-08T09:29:44.018Z,264.00
2023-12-08T09:30:43.983Z,258.00
2023-12-08T09:31:43.949Z,261.00
2023-12-08T09:32:44.213Z,240.00
2023-12-08T09:33:44.123Z,219.00
2023-12-08T09:34:44.206Z,245.00
2023-12-08T09:35:43.989Z,259.00
2023-12-08T09:37:24.236Z,243.00
2023-12-08T09:37:43.932Z,243.00
2023-12-08T09:38:43.962Z,225.00
2023-12-08T09:39:43.862Z,249.00
2023-12-08T09:40:43.890Z,249.00
2023-12-08T09:41:43.893Z,261.00
2023-12-08T09:42:44.508Z,262.00
2023-12-08T09:43:43.842Z,260.00
2023-12-08T09:44:43.833Z,247.00
2023-12-08T09:45:43.809Z,238.00
2023-12-08T09:47:43.948Z,242.00
2023-12-08T09:48:43.961Z,239.00
2023-12-08T09:49:43.838Z,270.00
2023-12-08T09:50:43.785Z,237.00
2023-12-08T09:51:43.736Z,230.00
2023-12-08T09:52:43.763Z,213.00
2023-12-08T09:53:43.774Z,216.00
2023-12-08T09:54:43.708Z,209.00
2023-12-08T09:55:43.694Z,206.00
2023-12-08T09:56:43.725Z,214.00
2023-12-08T09:57:43.684Z,189.00
2023-12-08T09:58:45.823Z,194.00
2023-12-08T09:59:43.699Z,207.00
2023-12-08T10:00:43.759Z,176.00
2023-12-08T10:01:43.667Z,169.00
2023-12-08T10:02:43.836Z,177.00
2023-12-08T10:03:44.129Z,206.00
2023-12-08T10:04:43.654Z,200.00
2023-12-08T10:05:43.626Z,218.00
2023-12-08T10:06:43.699Z,210.00
2023-12-08T10:07:43.649Z,221.00
2023-12-08T10:08:43.588Z,219.00
2023-12-08T10:09:43.581Z,240.00
2023-12-08T10:10:43.551Z,239.00
2023-12-08T10:11:43.592Z,259.00
2023-12-08T10:12:43.546Z,233.00
2023-12-08T10:13:43.606Z,195.00
2023-12-08T10:14:43.546Z,183.00
2023-12-08T10:15:43.516Z,238.00
2023-12-08T10:16:43.534Z,220.00
2023-12-08T10:17:45.041Z,248.00
2023-12-08T10:18:43.555Z,295.00
2023-12-08T10:19:43.566Z,300.00
2023-12-08T10:20:43.496Z,304.00
2023-12-08T10:21:43.446Z,255.00
2023-12-08T10:22:43.419Z,304.00
2023-12-08T10:23:43.450Z,274.00
2023-12-08T10:24:43.404Z,318.00
2023-12-08T10:25:43.394Z,383.00
2023-12-08T10:26:43.413Z,387.00
2023-12-08T10:27:43.378Z,319.00
2023-12-08T10:28:43.402Z,291.00
2023-12-08T10:29:43.411Z,332.00
2023-12-08T10:30:43.377Z,403.00
2023-12-08T10:31:43.339Z,376.00
2023-12-08T10:32:43.372Z,349.00
2023-12-08T10:33:43.611Z,395.00
2023-12-08T10:34:43.295Z,421.00
2023-12-08T10:35:43.326Z,421.00
2023-12-08T10:36:43.319Z,388.00
2023-12-08T10:37:43.359Z,347.00
2023-12-08T10:38:43.322Z,326.00
2023-12-08T10:39:43.249Z,354.00
2023-12-08T10:40:43.256Z,323.00
2023-12-08T10:41:43.315Z,276.00
2023-12-08T10:42:43.258Z,298.00
2023-12-08T10:43:43.218Z,313.00
2023-12-08T10:44:43.208Z,305.00
2023-12-08T10:45:43.213Z,294.00
2023-12-08T10:46:43.179Z,317.00
2023-12-08T10:47:43.266Z,276.00
2023-12-08T10:48:43.268Z,285.00
2023-12-08T10:49:43.258Z,323.00
2023-12-08T10:50:43.274Z,330.00
2023-12-08T10:51:43.150Z,320.00
2023-12-08T10:52:43.118Z,297.00
2023-12-08T10:53:43.149Z,286.00
2023-12-08T10:54:43.100Z,300.00
2023-12-08T10:55:43.075Z,274.00
2023-12-08T10:56:43.155Z,243.00
2023-12-08T10:57:43.069Z,220.00
2023-12-08T10:58:43.062Z,259.00
2023-12-08T10:59:43.051Z,290.00
2023-12-08T11:00:43.108Z,273.00
2023-12-08T11:01:43.047Z,285.00
2023-12-08T11:02:43.052Z,259.00
2023-12-08T11:03:51.548Z,301.00
2023-12-08T11:04:43.150Z,294.00
2023-12-08T11:05:43.138Z,273.00
2023-12-08T11:06:43.017Z,239.00
2023-12-08T11:07:42.975Z,242.00
2023-12-08T11:10:57.056Z,222.00
2023-12-08T11:11:58.284Z,239.00
2023-12-08T11:12:58.517Z,201.00
2023-12-08T11:13:57.892Z,187.00
2023-12-08T11:14:57.983Z,253.00
2023-12-08T11:17:22.471Z,247.00
2023-12-08T11:18:23.587Z,247.00
2023-12-08T11:19:24.660Z,233.00
2023-12-08T11:20:23.309Z,254.00
2023-12-08T11:21:23.209Z,253.00
2023-12-08T11:22:23.248Z,241.00
2023-12-08T11:23:23.198Z,262.00
2023-12-08T11:24:23.199Z,306.00
2023-12-08T11:25:23.201Z,336.00
2023-12-08T11:26:23.170Z,304.00
2023-12-08T11:29:32.043Z,239.00
2023-12-08T11:30:39.733Z,207.00
2023-12-08T11:31:32.818Z,238.00
2023-12-08T11:32:32.775Z,273.00
2023-12-08T11:33:33.074Z,302.00
2023-12-08T11:34:40.089Z,333.00
2023-12-08T11:35:32.738Z,323.00
2023-12-08T11:36:32.628Z,304.00
2023-12-08T11:37:32.626Z,302.00
2023-12-08T11:38:32.653Z,263.00
2023-12-08T11:39:32.608Z,282.00
2023-12-08T11:40:39.695Z,325.00
2023-12-08T11:41:32.752Z,326.00
2023-12-08T11:42:32.834Z,294.00
2023-12-08T11:43:32.584Z,273.00
2023-12-08T11:44:32.581Z,270.00
2023-12-08T11:45:39.475Z,274.00
2023-12-08T11:46:32.691Z,238.00
2023-12-08T11:47:32.769Z,238.00
2023-12-08T11:48:32.638Z,295.00
2023-12-08T11:49:32.642Z,273.00
2023-12-08T11:50:32.553Z,291.00
2023-12-08T11:51:32.480Z,301.00
2023-12-08T11:52:32.468Z,321.00
2023-12-08T11:53:32.536Z,361.00
2023-12-08T11:54:32.480Z,290.00
2023-12-08T11:55:35.989Z,332.00
2023-12-08T11:56:32.433Z,327.00
2023-12-08T11:57:32.779Z,317.00
2023-12-08T11:58:32.397Z,323.00
2023-12-08T11:59:32.405Z,347.00
2023-12-08T12:00:32.812Z,321.00
2023-12-08T12:01:32.363Z,342.00
2023-12-08T12:02:32.359Z,342.00
2023-12-08T12:03:32.399Z,383.00
2023-12-08T12:04:32.373Z,410.00
2023-12-08T12:05:32.607Z,365.00
2023-12-08T12:06:32.344Z,291.00
2023-12-08T12:07:32.319Z,299.00
2023-12-08T12:08:32.297Z,246.00
2023-12-08T12:09:32.440Z,225.00
2023-12-08T12:10:32.274Z,300.00
2023-12-08T12:11:36.450Z,244.00
2023-12-08T12:12:32.275Z,257.00
2023-12-08T12:13:32.261Z,287.00
2023-12-08T12:14:32.217Z,302.00
2023-12-08T12:15:32.270Z,269.00
2023-12-08T12:16:32.229Z,232.00
2023-12-08T12:17:32.288Z,281.00
2023-12-08T12:18:32.502Z,257.00
2023-12-08T12:19:32.225Z,251.00
2023-12-08T12:20:32.174Z,255.00
2023-12-08T12:21:32.182Z,236.00
2023-12-08T12:22:32.196Z,245.00
2023-12-08T12:23:32.179Z,256.00
2023-12-08T12:24:32.127Z,308.00
2023-12-08T12:25:32.144Z,278.00
2023-12-08T12:26:32.099Z,223.00
2023-12-08T12:27:32.094Z,207.00
2023-12-08T12:28:32.649Z,271.00
2023-12-08T12:29:32.067Z,217.00
2023-12-08T12:30:32.168Z,219.00
2023-12-08T12:31:32.078Z,209.00
2023-12-08T12:32:32.051Z,187.00
2023-12-08T12:33:32.140Z,187.00
2023-12-08T12:34:32.119Z,206.00
2023-12-08T12:35:32.047Z,188.00
2023-12-08T12:36:31.994Z,197.00
2023-12-08T12:37:32.035Z,200.00
2023-12-08T12:38:31.996Z,173.00
2023-12-08T12:39:31.988Z,192.00
2023-12-08T12:40:32.003Z,204.00
2023-12-08T12:41:31.971Z,199.00
2023-12-08T12:42:31.985Z,200.00
2023-12-08T12:43:31.932Z,204.00
2023-12-08T12:44:31.940Z,180.00
2023-12-08T12:45:32.121Z,168.00
2023-12-08T12:46:31.901Z,167.00
2023-12-08T12:47:32.259Z,164.00
2023-12-08T12:48:32.066Z,146.00
2023-12-08T12:49:32.022Z,150.00
2023-12-08T12:50:31.845Z,164.00
2023-12-08T12:51:31.964Z,158.00
2023-12-08T12:52:31.820Z,160.00
2023-12-08T12:53:31.843Z,156.00
2023-12-08T12:54:31.877Z,176.00
2023-12-08T12:55:31.843Z,155.00
2023-12-08T12:56:31.791Z,153.00
2023-12-08T12:57:31.959Z,149.00
2023-12-08T12:58:31.825Z,163.00
2023-12-08T12:59:31.766Z,140.00
2023-12-08T13:00:31.879Z,126.00
2023-12-08T13:01:31.742Z,118.00
2023-12-08T13:02:31.758Z,142.00
2023-12-08T13:03:31.837Z,168.00
2023-12-08T13:04:31.736Z,181.00
2023-12-08T13:05:32.053Z,179.00
2023-12-08T13:06:31.779Z,154.00
2023-12-08T13:07:31.741Z,167.00
2023-12-08T13:08:31.671Z,166.00
2023-12-08T13:09:31.721Z,145.00
2023-12-08T13:10:31.667Z,159.00
2023-12-08T13:11:31.703Z,154.00
2023-12-08T13:12:31.639Z,154.00
2023-12-08T13:13:31.685Z,197.00
2023-12-08T13:14:31.622Z,168.00
2023-12-08T13:15:31.712Z,183.00
2023-12-08T13:16:31.643Z,193.00
2023-12-08T13:17:31.649Z,174.00
2023-12-08T13:18:31.670Z,154.00
2023-12-08T13:19:31.703Z,136.00
2023-12-08T13:20:34.484Z,129.00
2023-12-08T13:21:40.320Z,120.00
2023-12-08T13:22:31.676Z,107.00
2023-12-08T13:23:31.607Z,99.00
2023-12-08T13:24:31.609Z,95.00
2023-12-08T13:25:31.562Z,102.00
2023-12-08T13:26:32.112Z,108.00
2023-12-08T13:27:31.649Z,105.00
2023-12-08T13:28:31.634Z,107.00
2023-12-08T13:29:31.587Z,124.00
2023-12-08T13:30:31.537Z,125.00
2023-12-08T13:31:31.453Z,136.00
2023-12-08T13:32:31.449Z,140.00
2023-12-08T13:33:31.507Z,145.00
2023-12-08T13:34:31.706Z,142.00
2023-12-08T13:37:30.640Z,131.00
2023-12-08T13:38:31.755Z,131.00
2023-12-08T13:39:32.208Z,146.00
2023-12-08T13:40:31.617Z,114.00
2023-12-08T13:41:31.608Z,120.00
2023-12-08T13:42:31.519Z,127.00
2023-12-08T13:43:31.704Z,129.00
2023-12-08T13:44:31.541Z,127.00
2023-12-08T13:45:31.688Z,132.00
2023-12-08T13:46:31.706Z,125.00
2023-12-08T13:48:53.516Z,108.00
2023-12-08T13:49:54.461Z,104.00
2023-12-08T13:51:01.826Z,118.00
2023-12-08T13:51:54.671Z,121.00
2023-12-08T13:52:54.461Z,110.00
2023-12-08T13:53:54.494Z,114.00
2023-12-08T13:54:54.360Z,116.00